sensor_id;sensor_type;location;lat;lon;timestamp;temperature;humidity
79711;DHT22;69465;51.630;6.570;2023-06-22T00:00:52;21.20;52.80
79711;DHT22;69465;51.630;6.570;2023-06-22T00:03:21;21.20;52.80
79711;DHT22;69465;51.630;6.570;2023-06-22T00:05:48;21.30;53.00
79711;DHT22;69465;51.630;6.570;2023-06-22T00:08:16;21.20;52.90
79711;DHT22;69465;51.630;6.570;2023-06-22T00:10:43;21.30;52.90
79711;DHT22;69465;51.630;6.570;2023-06-22T00:13:10;21.30;53.00
79711;DHT22;69465;51.630;6.570;2023-06-22T00:15:39;21.30;52.80
79711;DHT22;69465;51.630;6.570;2023-06-22T00:18:09;21.20;53.00
79711;DHT22;69465;51.630;6.570;2023-06-22T00:20:37;21.20;52.70
79711;DHT22;69465;51.630;6.570;2023-06-22T00:23:05;21.20;52.60
79711;DHT22;69465;51.630;6.570;2023-06-22T00:25:32;21.20;52.60
79711;DHT22;69465;51.630;6.570;2023-06-22T00:27:59;21.20;52.70
79711;DHT22;69465;51.630;6.570;2023-06-22T00:30:25;21.20;52.90
79711;DHT22;69465;51.630;6.570;2023-06-22T00:32:52;21.10;52.90
79711;DHT22;69465;51.630;6.570;2023-06-22T00:35:19;21.10;52.80
79711;DHT22;69465;51.630;6.570;2023-06-22T00:37:46;21.10;52.90
79711;DHT22;69465;51.630;6.570;2023-06-22T00:40:13;21.10;53.20
79711;DHT22;69465;51.630;6.570;2023-06-22T00:42:41;21.00;53.20
79711;DHT22;69465;51.630;6.570;2023-06-22T00:45:08;21.00;53.30
79711;DHT22;69465;51.630;6.570;2023-06-22T00:47:35;20.90;53.30
79711;DHT22;69465;51.630;6.570;2023-06-22T00:50:03;20.90;53.40
79711;DHT22;69465;51.630;6.570;2023-06-22T00:52:32;20.90;53.30
79711;DHT22;69465;51.630;6.570;2023-06-22T00:55:01;20.90;53.00
79711;DHT22;69465;51.630;6.570;2023-06-22T00:57:29;21.00;53.40
79711;DHT22;69465;51.630;6.570;2023-06-22T00:59:57;21.00;53.40
79711;DHT22;69465;51.630;6.570;2023-06-22T01:02:23;20.90;53.70
79711;DHT22;69465;51.630;6.570;2023-06-22T01:04:51;20.90;53.80
79711;DHT22;69465;51.630;6.570;2023-06-22T01:07:34;20.90;53.80
79711;DHT22;69465;51.630;6.570;2023-06-22T01:12:45;20.80;53.90
79711;DHT22;69465;51.630;6.570;2023-06-22T01:15:21;20.80;53.90
79711;DHT22;69465;51.630;6.570;2023-06-22T01:17:50;20.80;53.70
79711;DHT22;69465;51.630;6.570;2023-06-22T01:20:20;20.80;53.70
79711;DHT22;69465;51.630;6.570;2023-06-22T01:23:10;20.80;53.80
79711;DHT22;69465;51.630;6.570;2023-06-22T01:28:51;20.80;53.70
79711;DHT22;69465;51.630;6.570;2023-06-22T01:31:24;20.80;53.90
79711;DHT22;69465;51.630;6.570;2023-06-22T01:34:00;20.80;53.80
79711;DHT22;69465;51.630;6.570;2023-06-22T01:36:29;20.80;53.90
79711;DHT22;69465;51.630;6.570;2023-06-22T01:38:57;20.70;53.80
79711;DHT22;69465;51.630;6.570;2023-06-22T01:41:26;20.70;54.00
79711;DHT22;69465;51.630;6.570;2023-06-22T01:43:54;20.70;54.20
79711;DHT22;69465;51.630;6.570;2023-06-22T01:46:21;20.60;54.10
79711;DHT22;69465;51.630;6.570;2023-06-22T01:48:49;20.60;54.10
79711;DHT22;69465;51.630;6.570;2023-06-22T01:51:17;20.60;54.20
79711;DHT22;69465;51.630;6.570;2023-06-22T01:53:44;20.60;54.40
79711;DHT22;69465;51.630;6.570;2023-06-22T01:56:10;20.60;54.40
79711;DHT22;69465;51.630;6.570;2023-06-22T01:58:46;20.50;54.30
79711;DHT22;69465;51.630;6.570;2023-06-22T02:01:19;20.40;54.20
79711;DHT22;69465;51.630;6.570;2023-06-22T02:03:52;20.40;54.20
79711;DHT22;69465;51.630;6.570;2023-06-22T02:06:31;20.40;54.30
79711;DHT22;69465;51.630;6.570;2023-06-22T02:09:02;20.50;54.60
79711;DHT22;69465;51.630;6.570;2023-06-22T02:11:30;20.40;54.30
79711;DHT22;69465;51.630;6.570;2023-06-22T02:13:58;20.40;54.40
79711;DHT22;69465;51.630;6.570;2023-06-22T02:16:25;20.40;54.30
79711;DHT22;69465;51.630;6.570;2023-06-22T02:18:52;20.30;54.40
79711;DHT22;69465;51.630;6.570;2023-06-22T02:21:20;20.30;54.60
79711;DHT22;69465;51.630;6.570;2023-06-22T02:23:47;20.30;54.50
79711;DHT22;69465;51.630;6.570;2023-06-22T02:26:16;20.30;54.80
79711;DHT22;69465;51.630;6.570;2023-06-22T02:28:44;20.20;54.80
79711;DHT22;69465;51.630;6.570;2023-06-22T02:31:11;20.20;54.90
79711;DHT22;69465;51.630;6.570;2023-06-22T02:33:37;20.20;54.90
79711;DHT22;69465;51.630;6.570;2023-06-22T02:36:04;20.10;55.00
79711;DHT22;69465;51.630;6.570;2023-06-22T02:38:31;20.10;55.20
79711;DHT22;69465;51.630;6.570;2023-06-22T02:40:58;20.10;55.30
79711;DHT22;69465;51.630;6.570;2023-06-22T02:43:25;20.00;55.40
79711;DHT22;69465;51.630;6.570;2023-06-22T02:45:51;20.00;55.20
79711;DHT22;69465;51.630;6.570;2023-06-22T02:48:18;20.00;55.60
79711;DHT22;69465;51.630;6.570;2023-06-22T02:50:45;20.00;55.90
79711;DHT22;69465;51.630;6.570;2023-06-22T02:53:12;20.00;55.80
79711;DHT22;69465;51.630;6.570;2023-06-22T02:55:38;20.00;55.80
79711;DHT22;69465;51.630;6.570;2023-06-22T02:58:05;20.00;55.90
79711;DHT22;69465;51.630;6.570;2023-06-22T03:00:32;20.00;55.90
79711;DHT22;69465;51.630;6.570;2023-06-22T03:02:58;20.00;55.90
79711;DHT22;69465;51.630;6.570;2023-06-22T03:05:26;20.00;55.80
79711;DHT22;69465;51.630;6.570;2023-06-22T03:07:52;20.10;55.60
79711;DHT22;69465;51.630;6.570;2023-06-22T03:10:19;20.10;55.40
79711;DHT22;69465;51.630;6.570;2023-06-22T03:12:46;20.10;55.60
79711;DHT22;69465;51.630;6.570;2023-06-22T03:15:13;20.00;55.60
79711;DHT22;69465;51.630;6.570;2023-06-22T03:17:40;20.10;55.80
79711;DHT22;69465;51.630;6.570;2023-06-22T03:20:08;20.00;55.90
79711;DHT22;69465;51.630;6.570;2023-06-22T03:22:36;20.00;56.00
79711;DHT22;69465;51.630;6.570;2023-06-22T03:25:03;20.00;56.00
79711;DHT22;69465;51.630;6.570;2023-06-22T03:27:30;19.90;56.00
79711;DHT22;69465;51.630;6.570;2023-06-22T03:29:57;19.90;56.10
79711;DHT22;69465;51.630;6.570;2023-06-22T03:32:24;19.90;56.30
79711;DHT22;69465;51.630;6.570;2023-06-22T03:34:51;19.90;56.40
79711;DHT22;69465;51.630;6.570;2023-06-22T03:37:17;19.80;56.50
79711;DHT22;69465;51.630;6.570;2023-06-22T03:39:44;19.80;56.70
79711;DHT22;69465;51.630;6.570;2023-06-22T03:42:11;19.80;57.00
79711;DHT22;69465;51.630;6.570;2023-06-22T03:44:38;19.70;56.90
79711;DHT22;69465;51.630;6.570;2023-06-22T03:47:06;19.70;57.00
79711;DHT22;69465;51.630;6.570;2023-06-22T03:49:33;19.70;57.10
79711;DHT22;69465;51.630;6.570;2023-06-22T03:52:01;19.70;57.20
79711;DHT22;69465;51.630;6.570;2023-06-22T03:54:29;19.70;57.30
79711;DHT22;69465;51.630;6.570;2023-06-22T03:56:59;19.60;57.30
79711;DHT22;69465;51.630;6.570;2023-06-22T03:59:25;19.60;57.70
79711;DHT22;69465;51.630;6.570;2023-06-22T04:01:52;19.60;58.00
79711;DHT22;69465;51.630;6.570;2023-06-22T04:04:19;19.60;58.00
79711;DHT22;69465;51.630;6.570;2023-06-22T04:06:46;19.60;58.20
79711;DHT22;69465;51.630;6.570;2023-06-22T04:09:13;19.60;58.20
79711;DHT22;69465;51.630;6.570;2023-06-22T04:11:39;19.70;58.30
79711;DHT22;69465;51.630;6.570;2023-06-22T04:14:06;19.70;58.30
79711;DHT22;69465;51.630;6.570;2023-06-22T04:16:33;19.80;58.40
79711;DHT22;69465;51.630;6.570;2023-06-22T04:19:00;19.90;58.00
79711;DHT22;69465;51.630;6.570;2023-06-22T04:21:27;20.00;58.00
79711;DHT22;69465;51.630;6.570;2023-06-22T04:23:53;20.20;57.80
79711;DHT22;69465;51.630;6.570;2023-06-22T04:26:20;20.30;57.50
79711;DHT22;69465;51.630;6.570;2023-06-22T04:28:47;20.50;57.30
79711;DHT22;69465;51.630;6.570;2023-06-22T04:31:14;20.50;56.80
79711;DHT22;69465;51.630;6.570;2023-06-22T04:33:41;20.60;56.50
79711;DHT22;69465;51.630;6.570;2023-06-22T04:36:07;20.70;56.30
79711;DHT22;69465;51.630;6.570;2023-06-22T04:38:34;20.80;56.10
79711;DHT22;69465;51.630;6.570;2023-06-22T04:41:01;20.80;55.90
79711;DHT22;69465;51.630;6.570;2023-06-22T04:43:28;20.90;55.80
79711;DHT22;69465;51.630;6.570;2023-06-22T04:45:54;20.90;55.50
79711;DHT22;69465;51.630;6.570;2023-06-22T04:48:21;21.00;55.20
79711;DHT22;69465;51.630;6.570;2023-06-22T04:50:47;21.10;55.00
79711;DHT22;69465;51.630;6.570;2023-06-22T04:53:14;21.20;55.00
79711;DHT22;69465;51.630;6.570;2023-06-22T04:55:41;21.20;55.00
79711;DHT22;69465;51.630;6.570;2023-06-22T04:58:07;21.30;55.00
79711;DHT22;69465;51.630;6.570;2023-06-22T05:00:34;21.40;54.80
79711;DHT22;69465;51.630;6.570;2023-06-22T05:03:01;21.60;54.30
79711;DHT22;69465;51.630;6.570;2023-06-22T05:05:45;21.70;54.10
79711;DHT22;69465;51.630;6.570;2023-06-22T05:08:12;21.90;54.00
79711;DHT22;69465;51.630;6.570;2023-06-22T05:10:39;22.00;53.60
79711;DHT22;69465;51.630;6.570;2023-06-22T05:13:25;22.20;53.30
79711;DHT22;69465;51.630;6.570;2023-06-22T05:15:51;22.40;52.50
79711;DHT22;69465;51.630;6.570;2023-06-22T05:18:19;22.50;51.90
79711;DHT22;69465;51.630;6.570;2023-06-22T05:20:45;22.70;51.60
79711;DHT22;69465;51.630;6.570;2023-06-22T05:23:12;22.80;50.80
79711;DHT22;69465;51.630;6.570;2023-06-22T05:25:39;23.00;50.70
79711;DHT22;69465;51.630;6.570;2023-06-22T05:28:05;23.20;50.30
79711;DHT22;69465;51.630;6.570;2023-06-22T05:30:32;23.30;49.60
79711;DHT22;69465;51.630;6.570;2023-06-22T05:32:59;23.40;49.80
79711;DHT22;69465;51.630;6.570;2023-06-22T05:35:25;23.50;49.40
79711;DHT22;69465;51.630;6.570;2023-06-22T05:37:52;23.50;49.00
79711;DHT22;69465;51.630;6.570;2023-06-22T05:40:19;23.50;49.10
79711;DHT22;69465;51.630;6.570;2023-06-22T05:42:46;23.50;49.50
79711;DHT22;69465;51.630;6.570;2023-06-22T05:45:12;23.40;48.90
79711;DHT22;69465;51.630;6.570;2023-06-22T05:47:39;23.40;49.60
79711;DHT22;69465;51.630;6.570;2023-06-22T05:50:06;23.20;49.80
79711;DHT22;69465;51.630;6.570;2023-06-22T05:52:34;23.10;50.00
79711;DHT22;69465;51.630;6.570;2023-06-22T05:55:02;22.90;50.60
79711;DHT22;69465;51.630;6.570;2023-06-22T05:57:29;22.80;51.60
79711;DHT22;69465;51.630;6.570;2023-06-22T05:59:55;22.70;51.60
79711;DHT22;69465;51.630;6.570;2023-06-22T06:02:22;22.60;51.70
79711;DHT22;69465;51.630;6.570;2023-06-22T06:04:49;22.40;52.20
79711;DHT22;69465;51.630;6.570;2023-06-22T06:07:15;22.40;52.50
79711;DHT22;69465;51.630;6.570;2023-06-22T06:09:42;22.30;52.80
79711;DHT22;69465;51.630;6.570;2023-06-22T06:12:09;22.20;53.40
79711;DHT22;69465;51.630;6.570;2023-06-22T06:14:35;22.20;53.30
79711;DHT22;69465;51.630;6.570;2023-06-22T06:17:02;22.20;53.20
79711;DHT22;69465;51.630;6.570;2023-06-22T06:19:29;22.10;53.70
79711;DHT22;69465;51.630;6.570;2023-06-22T06:21:56;22.10;53.80
79711;DHT22;69465;51.630;6.570;2023-06-22T06:24:23;22.10;53.10
79711;DHT22;69465;51.630;6.570;2023-06-22T06:26:49;22.10;53.00
79711;DHT22;69465;51.630;6.570;2023-06-22T06:29:16;22.20;52.90
79711;DHT22;69465;51.630;6.570;2023-06-22T06:31:42;22.20;52.00
79711;DHT22;69465;51.630;6.570;2023-06-22T06:34:09;22.20;51.70
79711;DHT22;69465;51.630;6.570;2023-06-22T06:36:36;22.20;51.60
79711;DHT22;69465;51.630;6.570;2023-06-22T06:39:03;22.20;51.10
79711;DHT22;69465;51.630;6.570;2023-06-22T06:41:29;22.20;51.60
79711;DHT22;69465;51.630;6.570;2023-06-22T06:43:56;22.10;51.10
79711;DHT22;69465;51.630;6.570;2023-06-22T06:46:22;22.20;51.20
79711;DHT22;69465;51.630;6.570;2023-06-22T06:48:49;22.20;51.40
79711;DHT22;69465;51.630;6.570;2023-06-22T06:51:15;22.30;51.20
79711;DHT22;69465;51.630;6.570;2023-06-22T06:53:42;22.20;51.80
79711;DHT22;69465;51.630;6.570;2023-06-22T06:56:08;22.30;51.60
79711;DHT22;69465;51.630;6.570;2023-06-22T06:58:35;22.30;51.70
79711;DHT22;69465;51.630;6.570;2023-06-22T07:01:02;22.30;51.20
79711;DHT22;69465;51.630;6.570;2023-06-22T07:03:29;22.50;51.40
79711;DHT22;69465;51.630;6.570;2023-06-22T07:05:56;22.50;51.40
79711;DHT22;69465;51.630;6.570;2023-06-22T07:08:22;22.40;51.60
79711;DHT22;69465;51.630;6.570;2023-06-22T07:10:49;22.40;52.90
79711;DHT22;69465;51.630;6.570;2023-06-22T07:13:15;22.50;53.20
79711;DHT22;69465;51.630;6.570;2023-06-22T07:15:42;22.40;53.10
79711;DHT22;69465;51.630;6.570;2023-06-22T07:18:09;22.40;53.00
79711;DHT22;69465;51.630;6.570;2023-06-22T07:20:35;22.40;52.60
79711;DHT22;69465;51.630;6.570;2023-06-22T07:23:02;22.30;52.20
79711;DHT22;69465;51.630;6.570;2023-06-22T07:25:28;22.30;53.00
79711;DHT22;69465;51.630;6.570;2023-06-22T07:28:01;22.30;53.00
79711;DHT22;69465;51.630;6.570;2023-06-22T07:30:28;22.40;53.20
79711;DHT22;69465;51.630;6.570;2023-06-22T07:32:57;22.50;53.90
79711;DHT22;69465;51.630;6.570;2023-06-22T07:35:24;22.50;51.40
79711;DHT22;69465;51.630;6.570;2023-06-22T07:37:51;22.50;51.40
79711;DHT22;69465;51.630;6.570;2023-06-22T07:40:17;22.60;51.70
79711;DHT22;69465;51.630;6.570;2023-06-22T07:42:44;22.70;53.30
79711;DHT22;69465;51.630;6.570;2023-06-22T07:45:11;22.80;52.50
79711;DHT22;69465;51.630;6.570;2023-06-22T07:47:37;22.90;52.10
79711;DHT22;69465;51.630;6.570;2023-06-22T07:50:05;23.00;51.80
79711;DHT22;69465;51.630;6.570;2023-06-22T07:52:32;23.10;52.00
79711;DHT22;69465;51.630;6.570;2023-06-22T07:54:58;23.30;51.20
79711;DHT22;69465;51.630;6.570;2023-06-22T07:57:25;23.40;51.20
79711;DHT22;69465;51.630;6.570;2023-06-22T07:59:52;23.40;51.30
79711;DHT22;69465;51.630;6.570;2023-06-22T08:02:18;23.50;50.90
79711;DHT22;69465;51.630;6.570;2023-06-22T08:04:45;23.60;51.20
79711;DHT22;69465;51.630;6.570;2023-06-22T08:07:11;23.70;50.90
79711;DHT22;69465;51.630;6.570;2023-06-22T08:09:38;23.70;50.60
79711;DHT22;69465;51.630;6.570;2023-06-22T08:12:05;23.70;50.40
79711;DHT22;69465;51.630;6.570;2023-06-22T08:14:32;23.80;51.30
79711;DHT22;69465;51.630;6.570;2023-06-22T08:16:59;23.90;50.80
79711;DHT22;69465;51.630;6.570;2023-06-22T08:19:25;24.00;49.80
79711;DHT22;69465;51.630;6.570;2023-06-22T08:21:52;24.20;49.30
79711;DHT22;69465;51.630;6.570;2023-06-22T08:24:18;24.40;48.40
79711;DHT22;69465;51.630;6.570;2023-06-22T08:26:45;24.50;47.00
79711;DHT22;69465;51.630;6.570;2023-06-22T08:29:11;24.60;47.10
79711;DHT22;69465;51.630;6.570;2023-06-22T08:31:38;24.60;46.80
79711;DHT22;69465;51.630;6.570;2023-06-22T08:34:05;24.70;47.70
79711;DHT22;69465;51.630;6.570;2023-06-22T08:36:31;24.80;46.90
79711;DHT22;69465;51.630;6.570;2023-06-22T08:38:59;25.00;46.40
79711;DHT22;69465;51.630;6.570;2023-06-22T08:41:25;25.10;46.00
79711;DHT22;69465;51.630;6.570;2023-06-22T08:43:52;25.10;45.30
79711;DHT22;69465;51.630;6.570;2023-06-22T08:46:19;25.10;44.90
79711;DHT22;69465;51.630;6.570;2023-06-22T08:48:45;25.20;45.70
79711;DHT22;69465;51.630;6.570;2023-06-22T08:51:12;25.20;45.00
79711;DHT22;69465;51.630;6.570;2023-06-22T08:53:38;25.10;44.60
79711;DHT22;69465;51.630;6.570;2023-06-22T08:56:05;25.00;44.90
79711;DHT22;69465;51.630;6.570;2023-06-22T08:58:32;24.90;45.80
79711;DHT22;69465;51.630;6.570;2023-06-22T09:00:58;24.80;45.90
79711;DHT22;69465;51.630;6.570;2023-06-22T09:03:25;24.80;46.40
79711;DHT22;69465;51.630;6.570;2023-06-22T09:05:52;24.70;46.60
79711;DHT22;69465;51.630;6.570;2023-06-22T09:08:18;24.50;46.10
79711;DHT22;69465;51.630;6.570;2023-06-22T09:10:45;24.40;46.30
79711;DHT22;69465;51.630;6.570;2023-06-22T09:13:11;24.30;47.40
79711;DHT22;69465;51.630;6.570;2023-06-22T09:15:38;24.30;47.40
79711;DHT22;69465;51.630;6.570;2023-06-22T09:18:05;24.30;48.10
79711;DHT22;69465;51.630;6.570;2023-06-22T09:20:31;24.20;48.00
79711;DHT22;69465;51.630;6.570;2023-06-22T09:22:58;24.30;48.20
79711;DHT22;69465;51.630;6.570;2023-06-22T09:25:25;24.30;48.10
79711;DHT22;69465;51.630;6.570;2023-06-22T09:27:52;24.30;48.10
79711;DHT22;69465;51.630;6.570;2023-06-22T09:30:19;24.30;47.80
79711;DHT22;69465;51.630;6.570;2023-06-22T09:32:45;24.40;48.20
79711;DHT22;69465;51.630;6.570;2023-06-22T09:35:12;24.50;47.80
79711;DHT22;69465;51.630;6.570;2023-06-22T09:37:40;24.60;48.40
79711;DHT22;69465;51.630;6.570;2023-06-22T09:40:07;24.70;48.30
79711;DHT22;69465;51.630;6.570;2023-06-22T09:42:34;24.80;48.10
79711;DHT22;69465;51.630;6.570;2023-06-22T09:45:01;25.00;47.20
79711;DHT22;69465;51.630;6.570;2023-06-22T09:47:28;25.00;47.20
79711;DHT22;69465;51.630;6.570;2023-06-22T09:49:55;25.10;47.20
79711;DHT22;69465;51.630;6.570;2023-06-22T09:52:22;25.20;46.40
79711;DHT22;69465;51.630;6.570;2023-06-22T09:54:56;25.20;45.90
79711;DHT22;69465;51.630;6.570;2023-06-22T09:57:23;25.20;46.30
79711;DHT22;69465;51.630;6.570;2023-06-22T09:59:49;25.30;46.50
79711;DHT22;69465;51.630;6.570;2023-06-22T10:02:16;25.20;47.10
79711;DHT22;69465;51.630;6.570;2023-06-22T10:04:43;25.20;46.50
79711;DHT22;69465;51.630;6.570;2023-06-22T10:07:10;25.10;46.70
79711;DHT22;69465;51.630;6.570;2023-06-22T10:09:36;25.00;46.50
79711;DHT22;69465;51.630;6.570;2023-06-22T10:12:03;24.90;46.60
79711;DHT22;69465;51.630;6.570;2023-06-22T10:14:30;24.80;47.10
79711;DHT22;69465;51.630;6.570;2023-06-22T10:16:57;24.70;47.20
79711;DHT22;69465;51.630;6.570;2023-06-22T10:19:25;24.60;47.80
79711;DHT22;69465;51.630;6.570;2023-06-22T10:21:52;24.60;48.40
79711;DHT22;69465;51.630;6.570;2023-06-22T10:24:18;24.50;48.50
79711;DHT22;69465;51.630;6.570;2023-06-22T10:26:45;24.50;48.80
79711;DHT22;69465;51.630;6.570;2023-06-22T10:29:11;24.30;50.10
79711;DHT22;69465;51.630;6.570;2023-06-22T10:31:44;24.10;52.80
79711;DHT22;69465;51.630;6.570;2023-06-22T10:34:10;24.00;54.10
79711;DHT22;69465;51.630;6.570;2023-06-22T10:36:37;23.80;54.60
79711;DHT22;69465;51.630;6.570;2023-06-22T10:39:03;23.60;55.60
79711;DHT22;69465;51.630;6.570;2023-06-22T10:41:30;23.50;55.70
79711;DHT22;69465;51.630;6.570;2023-06-22T10:43:56;23.40;55.20
79711;DHT22;69465;51.630;6.570;2023-06-22T10:46:26;23.40;57.30
79711;DHT22;69465;51.630;6.570;2023-06-22T10:48:53;23.40;57.80
79711;DHT22;69465;51.630;6.570;2023-06-22T10:51:19;23.50;57.00
79711;DHT22;69465;51.630;6.570;2023-06-22T10:53:46;23.60;57.10
79711;DHT22;69465;51.630;6.570;2023-06-22T10:56:13;23.80;56.10
79711;DHT22;69465;51.630;6.570;2023-06-22T10:58:39;23.90;56.50
79711;DHT22;69465;51.630;6.570;2023-06-22T11:01:06;24.00;56.80
79711;DHT22;69465;51.630;6.570;2023-06-22T11:03:32;24.10;56.30
79711;DHT22;69465;51.630;6.570;2023-06-22T11:05:59;24.30;55.60
79711;DHT22;69465;51.630;6.570;2023-06-22T11:08:25;24.30;55.70
79711;DHT22;69465;51.630;6.570;2023-06-22T11:10:52;24.30;56.30
79711;DHT22;69465;51.630;6.570;2023-06-22T11:13:19;24.40;55.30
79711;DHT22;69465;51.630;6.570;2023-06-22T11:15:45;24.40;55.10
79711;DHT22;69465;51.630;6.570;2023-06-22T11:18:12;24.50;55.60
79711;DHT22;69465;51.630;6.570;2023-06-22T11:20:39;24.50;55.10
79711;DHT22;69465;51.630;6.570;2023-06-22T11:23:06;24.50;55.00
79711;DHT22;69465;51.630;6.570;2023-06-22T11:25:33;24.50;52.90
79711;DHT22;69465;51.630;6.570;2023-06-22T11:28:02;24.50;53.60
79711;DHT22;69465;51.630;6.570;2023-06-22T11:30:29;24.60;52.80
79711;DHT22;69465;51.630;6.570;2023-06-22T11:32:58;24.50;53.10
79711;DHT22;69465;51.630;6.570;2023-06-22T11:35:25;24.40;53.00
79711;DHT22;69465;51.630;6.570;2023-06-22T11:37:52;24.40;52.80
79711;DHT22;69465;51.630;6.570;2023-06-22T11:40:19;24.30;53.60
79711;DHT22;69465;51.630;6.570;2023-06-22T11:42:45;24.20;54.20
79711;DHT22;69465;51.630;6.570;2023-06-22T11:45:12;24.20;55.10
79711;DHT22;69465;51.630;6.570;2023-06-22T11:47:38;24.20;56.40
79711;DHT22;69465;51.630;6.570;2023-06-22T11:50:06;24.30;56.30
79711;DHT22;69465;51.630;6.570;2023-06-22T11:52:34;24.30;56.40
79711;DHT22;69465;51.630;6.570;2023-06-22T11:55:00;24.40;57.40
79711;DHT22;69465;51.630;6.570;2023-06-22T11:57:27;24.50;57.70
79711;DHT22;69465;51.630;6.570;2023-06-22T11:59:53;24.50;57.50
79711;DHT22;69465;51.630;6.570;2023-06-22T12:02:20;24.60;57.60
79711;DHT22;69465;51.630;6.570;2023-06-22T12:04:47;24.60;58.60
79711;DHT22;69465;51.630;6.570;2023-06-22T12:07:13;24.60;58.10
79711;DHT22;69465;51.630;6.570;2023-06-22T12:09:40;24.60;58.10
79711;DHT22;69465;51.630;6.570;2023-06-22T12:12:07;24.50;59.00
79711;DHT22;69465;51.630;6.570;2023-06-22T12:14:33;24.40;59.20
79711;DHT22;69465;51.630;6.570;2023-06-22T12:17:00;24.20;59.70
79711;DHT22;69465;51.630;6.570;2023-06-22T12:19:26;24.00;59.90
79711;DHT22;69465;51.630;6.570;2023-06-22T12:21:53;23.80;60.70
79711;DHT22;69465;51.630;6.570;2023-06-22T12:24:20;23.60;61.90
79711;DHT22;69465;51.630;6.570;2023-06-22T12:26:46;23.40;63.50
79711;DHT22;69465;51.630;6.570;2023-06-22T12:29:13;23.20;64.20
79711;DHT22;69465;51.630;6.570;2023-06-22T12:31:40;23.10;63.70
79711;DHT22;69465;51.630;6.570;2023-06-22T12:34:07;22.90;63.80
79711;DHT22;69465;51.630;6.570;2023-06-22T12:36:33;22.80;64.30
79711;DHT22;69465;51.630;6.570;2023-06-22T12:39:00;22.80;65.80
79711;DHT22;69465;51.630;6.570;2023-06-22T12:41:27;22.80;66.30
79711;DHT22;69465;51.630;6.570;2023-06-22T12:43:53;23.00;67.40
79711;DHT22;69465;51.630;6.570;2023-06-22T12:46:20;23.20;67.90
79711;DHT22;69465;51.630;6.570;2023-06-22T12:48:46;23.50;66.00
79711;DHT22;69465;51.630;6.570;2023-06-22T12:51:20;23.70;63.70
79711;DHT22;69465;51.630;6.570;2023-06-22T12:53:47;23.90;63.80
79711;DHT22;69465;51.630;6.570;2023-06-22T12:56:14;23.90;62.30
79711;DHT22;69465;51.630;6.570;2023-06-22T12:58:41;23.90;61.20
79711;DHT22;69465;51.630;6.570;2023-06-22T13:01:07;23.80;61.30
79711;DHT22;69465;51.630;6.570;2023-06-22T13:03:34;23.70;60.90
79711;DHT22;69465;51.630;6.570;2023-06-22T13:06:01;23.60;61.90
79711;DHT22;69465;51.630;6.570;2023-06-22T13:08:28;23.60;62.00
79711;DHT22;69465;51.630;6.570;2023-06-22T13:11:15;23.70;62.20
79711;DHT22;69465;51.630;6.570;2023-06-22T13:13:41;23.70;62.00
79711;DHT22;69465;51.630;6.570;2023-06-22T13:16:08;23.90;61.90
79711;DHT22;69465;51.630;6.570;2023-06-22T13:18:34;23.90;61.80
79711;DHT22;69465;51.630;6.570;2023-06-22T13:21:02;24.00;61.40
79711;DHT22;69465;51.630;6.570;2023-06-22T13:23:29;24.10;60.80
79711;DHT22;69465;51.630;6.570;2023-06-22T13:25:57;24.10;61.00
79711;DHT22;69465;51.630;6.570;2023-06-22T13:28:24;24.20;60.20
79711;DHT22;69465;51.630;6.570;2023-06-22T13:30:54;24.30;58.70
79711;DHT22;69465;51.630;6.570;2023-06-22T13:33:21;24.40;59.20
79711;DHT22;69465;51.630;6.570;2023-06-22T13:35:48;24.40;58.30
79711;DHT22;69465;51.630;6.570;2023-06-22T13:38:14;24.50;58.80
79711;DHT22;69465;51.630;6.570;2023-06-22T13:40:41;24.50;59.10
79711;DHT22;69465;51.630;6.570;2023-06-22T13:43:08;24.40;59.20
79711;DHT22;69465;51.630;6.570;2023-06-22T13:45:35;24.30;58.70
79711;DHT22;69465;51.630;6.570;2023-06-22T13:48:02;24.20;58.70
79711;DHT22;69465;51.630;6.570;2023-06-22T13:50:29;24.20;58.50
79711;DHT22;69465;51.630;6.570;2023-06-22T13:52:56;24.20;58.60
79711;DHT22;69465;51.630;6.570;2023-06-22T13:55:22;24.30;59.40
79711;DHT22;69465;51.630;6.570;2023-06-22T13:57:49;24.40;58.40
79711;DHT22;69465;51.630;6.570;2023-06-22T14:00:16;24.50;58.40
79711;DHT22;69465;51.630;6.570;2023-06-22T14:02:43;24.50;57.80
79711;DHT22;69465;51.630;6.570;2023-06-22T14:05:10;24.60;57.90
79711;DHT22;69465;51.630;6.570;2023-06-22T14:07:37;24.50;57.40
79711;DHT22;69465;51.630;6.570;2023-06-22T14:10:04;24.30;56.80
79711;DHT22;69465;51.630;6.570;2023-06-22T14:12:33;24.20;57.60
79711;DHT22;69465;51.630;6.570;2023-06-22T14:15:00;24.20;56.10
79711;DHT22;69465;51.630;6.570;2023-06-22T14:17:26;24.00;57.70
79711;DHT22;69465;51.630;6.570;2023-06-22T14:19:53;23.90;57.50
79711;DHT22;69465;51.630;6.570;2023-06-22T14:22:20;23.80;59.20
79711;DHT22;69465;51.630;6.570;2023-06-22T14:24:47;23.70;58.70
79711;DHT22;69465;51.630;6.570;2023-06-22T14:27:14;23.70;60.10
79711;DHT22;69465;51.630;6.570;2023-06-22T14:29:41;23.80;59.20
79711;DHT22;69465;51.630;6.570;2023-06-22T14:32:08;23.70;58.40
79711;DHT22;69465;51.630;6.570;2023-06-22T14:34:35;23.80;57.20
79711;DHT22;69465;51.630;6.570;2023-06-22T14:37:02;23.80;57.40
79711;DHT22;69465;51.630;6.570;2023-06-22T14:39:29;23.90;56.70
79711;DHT22;69465;51.630;6.570;2023-06-22T14:41:55;23.80;57.30
79711;DHT22;69465;51.630;6.570;2023-06-22T14:44:22;23.90;58.00
79711;DHT22;69465;51.630;6.570;2023-06-22T14:46:48;23.80;57.50
79711;DHT22;69465;51.630;6.570;2023-06-22T14:49:15;23.70;58.60
79711;DHT22;69465;51.630;6.570;2023-06-22T14:51:41;23.70;59.00
79711;DHT22;69465;51.630;6.570;2023-06-22T14:54:08;23.60;59.40
79711;DHT22;69465;51.630;6.570;2023-06-22T14:56:35;23.50;57.60
79711;DHT22;69465;51.630;6.570;2023-06-22T14:59:02;23.50;59.50
79711;DHT22;69465;51.630;6.570;2023-06-22T15:01:29;23.40;58.60
79711;DHT22;69465;51.630;6.570;2023-06-22T15:03:55;23.40;58.40
79711;DHT22;69465;51.630;6.570;2023-06-22T15:06:22;23.30;59.60
79711;DHT22;69465;51.630;6.570;2023-06-22T15:08:49;23.30;59.40
79711;DHT22;69465;51.630;6.570;2023-06-22T15:11:15;23.10;59.50
79711;DHT22;69465;51.630;6.570;2023-06-22T15:13:42;23.10;59.30
79711;DHT22;69465;51.630;6.570;2023-06-22T15:16:09;23.10;59.60
79711;DHT22;69465;51.630;6.570;2023-06-22T15:18:36;23.00;59.40
79711;DHT22;69465;51.630;6.570;2023-06-22T15:21:04;23.00;59.80
79711;DHT22;69465;51.630;6.570;2023-06-22T15:23:31;22.90;58.70
79711;DHT22;69465;51.630;6.570;2023-06-22T15:25:58;22.90;59.90
79711;DHT22;69465;51.630;6.570;2023-06-22T15:28:26;22.90;60.40
79711;DHT22;69465;51.630;6.570;2023-06-22T15:30:53;22.80;61.80
79711;DHT22;69465;51.630;6.570;2023-06-22T15:33:19;22.60;61.90
79711;DHT22;69465;51.630;6.570;2023-06-22T15:35:46;22.50;61.20